createdAt,value
2022-11-14T00:00:14.716Z,1.3
2022-11-14T00:05:57.934Z,1.1
2022-11-14T00:11:21.646Z,0.9
2022-11-14T00:16:27.696Z,0.7
2022-11-14T00:21:50.351Z,0.9
2022-11-14T00:27:28.964Z,0.9
2022-11-14T00:33:06.635Z,1.1
2022-11-14T00:38:29.396Z,1.3
2022-11-14T00:43:36.522Z,1.3
2022-11-14T00:49:14.006Z,1.3
2022-11-14T00:54:51.625Z,1.1
2022-11-14T01:00:30.472Z,0.9
2022-11-14T01:06:13.043Z,0.9
2022-11-14T01:11:51.339Z,0.6
2022-11-14T01:17:13.913Z,0.3
2022-11-14T01:22:40.818Z,0.1
2022-11-14T01:28:18.397Z,-0.1
2022-11-14T01:33:56.111Z,-0.3
2022-11-14T01:39:19.033Z,-0.4
2022-11-14T01:45:02.030Z,-0.4
2022-11-14T01:50:39.815Z,-0.4
2022-11-14T01:56:16.834Z,-0.4
2022-11-14T02:01:24.083Z,-0.3
2022-11-14T02:07:07.486Z,-0.1
2022-11-14T02:12:45.501Z,0
2022-11-14T02:18:56.294Z,0
2022-11-14T02:24:22.395Z,-0.1
2022-11-14T02:29:45.977Z,-0.1
2022-11-14T02:35:29.311Z,-0.1
2022-11-14T02:41:07.498Z,0
2022-11-14T02:46:45.531Z,0.2
2022-11-14T02:52:23.522Z,0.3
2022-11-14T03:02:51.033Z,0.2
2022-11-14T03:07:27.245Z,0.4
2022-11-14T03:12:34.000Z,0.4
2022-11-14T03:18:12.145Z,0.5
2022-11-14T03:23:19.613Z,0.7
2022-11-14T03:28:56.571Z,0.8
2022-11-14T03:34:35.220Z,0.8
2022-11-14T03:40:15.693Z,0.8
2022-11-14T03:45:51.761Z,0.9
2022-11-14T03:51:30.600Z,0.9
2022-11-14T03:56:37.373Z,1.1
2022-11-14T04:01:44.229Z,1.1
2022-11-14T04:07:22.990Z,1.2
2022-11-14T04:13:06.273Z,1.3
2022-11-14T04:18:47.535Z,1.4
2022-11-14T04:24:11.255Z,1.2
2022-11-14T04:29:33.868Z,1.3
2022-11-14T04:40:35.221Z,1.6
2022-11-14T04:46:13.917Z,1.6
2022-11-14T04:57:13.024Z,1.8
2022-11-14T05:02:41.187Z,1.8
2022-11-14T05:08:03.888Z,1.8
2022-11-14T05:13:45.966Z,1.7
2022-11-14T05:19:06.936Z,1.7
2022-11-14T05:24:43.847Z,1.8
2022-11-14T05:29:54.209Z,1.8
2022-11-14T05:35:04.946Z,1.7
2022-11-14T05:40:11.019Z,1.7
2022-11-14T05:45:32.913Z,1.8
2022-11-14T05:51:10.950Z,1.7
2022-11-14T05:56:53.213Z,1.7
2022-11-14T06:02:38.610Z,1.8
2022-11-14T06:08:01.726Z,1.8
2022-11-14T06:13:39.559Z,1.8
2022-11-14T06:19:18.101Z,1.9
2022-11-14T06:24:55.751Z,1.8
2022-11-14T06:30:37.180Z,2.1
2022-11-14T06:36:14.690Z,2
2022-11-14T06:41:52.580Z,2.1
2022-11-14T06:47:36.327Z,2.1
2022-11-14T06:52:48.166Z,2.1
2022-11-14T06:58:32.636Z,1.9
2022-11-14T07:03:55.245Z,2.3
2022-11-14T07:09:17.056Z,2.4
2022-11-14T07:14:39.004Z,2.6
2022-11-14T07:20:05.255Z,2.6
2022-11-14T07:25:27.199Z,2.7
2022-11-14T07:30:55.199Z,2.9
2022-11-14T07:36:16.743Z,2.8
2022-11-14T07:41:39.408Z,2.9
2022-11-14T07:47:01.668Z,3
2022-11-14T07:52:23.749Z,2.6
2022-11-14T07:57:49.114Z,2.9
2022-11-14T08:03:12.350Z,3.1
2022-11-14T08:08:50.302Z,3.2
2022-11-14T08:14:53.794Z,3.6
2022-11-14T08:20:16.638Z,3.7
2022-11-14T08:25:39.056Z,3.8
2022-11-14T08:31:22.631Z,3.7
2022-11-14T08:36:49.841Z,3.9
2022-11-14T08:42:28.705Z,3.9
2022-11-14T08:48:06.437Z,4.1
2022-11-14T08:53:45.947Z,4.3
2022-11-14T08:59:24.107Z,4.2
2022-11-14T09:05:07.578Z,4.1
2022-11-14T09:10:47.152Z,4.1
2022-11-14T09:16:27.159Z,4.4
2022-11-14T09:22:17.685Z,4.5
2022-11-14T09:28:04.332Z,4.6
2022-11-14T09:33:45.579Z,4.3
2022-11-14T09:39:29.061Z,4.6
2022-11-14T09:45:11.594Z,5.1
2022-11-14T09:50:54.948Z,5.3
2022-11-14T09:56:33.204Z,4.6
2022-11-14T10:02:01.405Z,4.6
2022-11-14T10:07:40.617Z,4.6
2022-11-14T10:13:19.255Z,5.3
2022-11-14T10:18:42.764Z,5.8
2022-11-14T10:24:20.722Z,5.9
2022-11-14T10:30:05.855Z,6.1
2022-11-14T10:35:51.389Z,6.2
2022-11-14T10:41:57.740Z,6.5
2022-11-14T10:47:24.471Z,6.9
2022-11-14T10:53:03.368Z,7.2
2022-11-14T10:59:21.298Z,7.9
2022-11-14T11:04:59.601Z,9.3
2022-11-14T11:12:08.402Z,9.4
2022-11-14T11:17:36.099Z,9.6
2022-11-14T11:23:05.472Z,9.7
2022-11-14T11:28:43.605Z,9.9
2022-11-14T11:34:22.194Z,10.7
2022-11-14T11:40:01.735Z,10.6
2022-11-14T11:47:06.305Z,10
2022-11-14T11:52:28.820Z,11
2022-11-14T11:58:12.347Z,10.8
2022-11-14T12:03:41.407Z,11.4
2022-11-14T12:09:42.742Z,10.6
2022-11-14T12:15:34.279Z,11.4
2022-11-14T12:21:18.758Z,11.6
2022-11-14T12:27:03.856Z,11.8
2022-11-14T12:32:48.520Z,11.6
2022-11-14T12:38:29.327Z,12.3
2022-11-14T12:44:10.729Z,12.8
2022-11-14T12:49:51.739Z,12.8
2022-11-14T12:55:30.041Z,12.9
2022-11-14T13:01:10.483Z,13.4
2022-11-14T13:06:23.629Z,12.6
2022-11-14T13:11:51.535Z,13.5
2022-11-14T13:17:34.539Z,12.9
2022-11-14T13:23:14.220Z,12.9
2022-11-14T13:29:15.537Z,13.2
2022-11-14T13:34:54.310Z,13.1
2022-11-14T13:40:37.511Z,13.5
2022-11-14T13:46:21.001Z,13.1
2022-11-14T13:52:27.069Z,12.9
2022-11-14T13:58:05.712Z,12.6
2022-11-14T14:03:47.288Z,12.6
2022-11-14T14:09:30.839Z,12.6
2022-11-14T14:15:09.295Z,12.4
2022-11-14T14:20:54.334Z,12.1
2022-11-14T14:26:32.935Z,11.9
2022-11-14T14:32:15.420Z,11.5
2022-11-14T14:37:58.850Z,11.1
2022-11-14T14:43:42.153Z,10.8
2022-11-14T14:49:21.223Z,10.3
2022-11-14T14:55:04.263Z,9.9
2022-11-14T15:00:41.958Z,9.9
2022-11-14T15:06:10.293Z,9.6
2022-11-14T15:11:49.384Z,9.6
2022-11-14T15:17:30.448Z,9.3
2022-11-14T15:23:12.750Z,9
2022-11-14T15:28:51.059Z,8.6
2022-11-14T15:34:13.846Z,8.6
2022-11-14T15:40:27.624Z,8.1
2022-11-14T15:46:05.793Z,7.8
2022-11-14T15:51:43.862Z,8
2022-11-14T15:57:22.689Z,7.8
2022-11-14T16:03:26.598Z,7.7
2022-11-14T16:09:05.451Z,7.3
2022-11-14T16:14:18.114Z,7
2022-11-14T16:19:40.447Z,6.8
2022-11-14T16:25:07.105Z,6.7
2022-11-14T16:30:29.897Z,6.5
2022-11-14T16:35:52.527Z,6.4
2022-11-14T16:41:30.238Z,5.9
2022-11-14T16:47:00.267Z,5.6
2022-11-14T16:52:36.952Z,5.6
2022-11-14T16:57:59.225Z,5.6
2022-11-14T17:03:39.447Z,5.5
2022-11-14T17:09:08.036Z,5.3
2022-11-14T17:14:31.563Z,5.4
2022-11-14T17:20:10.224Z,5.4
2022-11-14T17:25:38.063Z,4.9
2022-11-14T17:35:55.208Z,4.5
2022-11-14T17:41:32.195Z,4.4
2022-11-14T17:47:09.935Z,4.4
2022-11-14T17:52:52.430Z,4.2
2022-11-14T17:58:20.989Z,4.3
2022-11-14T18:09:31.081Z,4.1
2022-11-14T18:21:04.755Z,4.2
2022-11-14T18:26:42.575Z,4.1
2022-11-14T18:32:43.448Z,4.3
2022-11-14T18:38:21.036Z,3.8
2022-11-14T18:43:33.326Z,3.8
2022-11-14T18:49:12.230Z,3.3
2022-11-14T18:54:40.461Z,3.3
2022-11-14T18:59:47.812Z,3.1
2022-11-14T19:05:26.897Z,2.9
2022-11-14T19:10:55.459Z,3.1
2022-11-14T19:16:33.796Z,2.7
2022-11-14T19:22:15.736Z,2.4
2022-11-14T19:27:56.125Z,2.5
2022-11-14T19:33:34.250Z,2.1
2022-11-14T19:39:32.323Z,1.9
2022-11-14T19:44:57.003Z,2.1
2022-11-14T19:56:00.707Z,2.4
2022-11-14T20:01:42.793Z,2.4
2022-11-14T20:07:21.388Z,2.5
2022-11-14T20:13:02.766Z,2.4
2022-11-14T20:18:25.261Z,2.3
2022-11-14T20:23:49.608Z,2.5
2022-11-14T20:29:02.547Z,2.4
2022-11-14T20:34:41.086Z,2.5
2022-11-14T20:40:41.785Z,2.4
2022-11-14T20:46:19.914Z,2.6
2022-11-14T20:51:43.578Z,2.6
2022-11-14T20:57:11.897Z,2.5
2022-11-14T21:02:51.250Z,2.6
2022-11-14T21:08:29.169Z,2.5
2022-11-14T21:14:07.323Z,2.6
2022-11-14T21:19:43.758Z,2.7
2022-11-14T21:25:12.397Z,2.5
2022-11-14T21:30:50.692Z,2.4
2022-11-14T21:36:48.386Z,2.3
2022-11-14T21:42:30.793Z,2.4
2022-11-14T21:48:08.701Z,2.5
2022-11-14T22:04:22.289Z,1.8
2022-11-14T22:10:02.089Z,1.7
2022-11-14T22:15:40.498Z,1.5
2022-11-14T22:21:23.649Z,1.4
2022-11-14T22:26:45.902Z,1.3
2022-11-14T22:31:51.796Z,1.3
2022-11-14T22:37:30.160Z,1.4
2022-11-14T22:43:14.125Z,1.6
2022-11-14T22:48:51.463Z,1.7
2022-11-14T22:54:13.432Z,1.5
2022-11-14T22:59:20.148Z,1.4
2022-11-14T23:05:04.916Z,1.4
2022-11-14T23:10:42.973Z,1.3
2022-11-14T23:16:21.480Z,1
2022-11-14T23:21:45.958Z,0.8
2022-11-14T23:27:23.218Z,0.9
2022-11-14T23:33:00.551Z,1.1
2022-11-14T23:38:38.356Z,0.6
2022-11-14T23:44:15.356Z,0.3
2022-11-14T23:55:14.562Z,0.3
